Time;durP1;ratioP1;P1;durP2;ratioP2;P2;SDS_P1;SDS_P2;PMS_P1;PMS_P2;Temp;Humidity;BMP_temperature;BMP_pressure;BME280_temperature;BME280_humidity;BME280_pressure;Samples;Min_cycle;Max_cycle;Signal;HPM_P1;HPM_P2
2023/12/26 00:00:19;;;;;;;;;2.00;1.00;;;;;16.80;100.00;100898.63;2088028;28;44880;-61
2023/12/26 00:01:19;;;;;;;;;2.67;1.33;;;;;16.79;100.00;100899.56;2088001;28;44937;-62
2023/12/26 00:02:20;;;;;;;;;3.00;3.00;;;;;16.79;100.00;100885.31;2088492;28;44723;-62
2023/12/26 00:03:21;;;;;;;;;3.50;2.00;;;;;16.76;100.00;100897.88;2087844;28;44929;-61
2023/12/26 00:04:23;;;;;;;;;4.67;3.67;;;;;16.74;100.00;100889.03;2087295;28;44928;-61
2023/12/26 00:05:23;;;;;;;;;1.75;1.75;;;;;16.74;100.00;100883.69;2087751;28;45094;-60
2023/12/26 00:06:23;;;;;;;;;1.67;1.67;;;;;16.73;100.00;100884.63;2089116;28;44901;-60
2023/12/26 00:07:24;;;;;;;;;2.00;1.33;;;;;16.73;100.00;100887.28;2071542;28;44956;-60
2023/12/26 00:08:24;;;;;;;;;2.67;1.00;;;;;16.73;100.00;100894.47;2071679;28;45086;-61
2023/12/26 00:09:24;;;;;;;;;2.00;2.00;;;;;16.70;100.00;100895.47;2089304;28;44846;-60
2023/12/26 00:10:25;;;;;;;;;1.00;1.00;;;;;16.67;100.00;100890.25;2089165;28;44865;-59
2023/12/26 00:11:25;;;;;;;;;2.67;1.33;;;;;16.65;100.00;100894.78;2089314;28;44880;-61
2023/12/26 00:12:25;;;;;;;;;3.67;2.00;;;;;16.65;100.00;100891.25;2086821;28;44856;-61
2023/12/26 00:13:26;;;;;;;;;3.00;3.00;;;;;16.66;100.00;100895.66;2089344;28;45112;-61
2023/12/26 00:14:26;;;;;;;;;2.00;1.00;;;;;16.64;100.00;100884.13;2089436;28;44890;-60
2023/12/26 00:15:27;;;;;;;;;2.00;2.00;;;;;16.65;100.00;100899.28;2089222;28;44831;-61
2023/12/26 00:16:27;;;;;;;;;2.00;1.75;;;;;16.64;100.00;100892.16;2089032;28;44883;-60
2023/12/26 00:17:28;;;;;;;;;2.00;2.00;;;;;16.65;100.00;100891.25;2089489;28;44988;-60
2023/12/26 00:18:28;;;;;;;;;2.00;1.00;;;;;16.66;100.00;100892.97;2089226;28;45301;-59
2023/12/26 00:19:28;;;;;;;;;2.67;2.67;;;;;16.66;100.00;100887.63;2089326;28;44823;-61
2023/12/26 00:20:29;;;;;;;;;2.00;2.00;;;;;16.66;100.00;100892.97;2089620;28;44883;-61
2023/12/26 00:21:30;;;;;;;;;3.00;1.33;;;;;16.66;100.00;100888.50;2089210;28;44948;-60
2023/12/26 00:22:30;;;;;;;;;3.00;3.00;;;;;16.67;100.00;100894.72;2089215;28;44991;-61
2023/12/26 00:23:30;;;;;;;;;3.00;1.67;;;;;16.66;100.00;100893.84;2089031;28;45124;-61
2023/12/26 00:24:31;;;;;;;;;3.00;3.00;;;;;16.66;100.00;100895.66;2089326;28;45086;-58
2023/12/26 00:25:31;;;;;;;;;2.33;2.00;;;;;16.67;100.00;100882.22;2089355;28;45011;-61
2023/12/26 00:26:31;;;;;;;;;2.33;2.33;;;;;16.67;100.00;100892.94;2089225;28;44814;-62
2023/12/26 00:27:32;;;;;;;;;1.67;1.67;;;;;16.67;100.00;100876.88;2089256;28;44945;-60
2023/12/26 00:28:32;;;;;;;;;1.00;1.00;;;;;16.68;100.00;100888.44;2089273;28;44914;-59
2023/12/26 00:29:32;;;;;;;;;2.33;2.00;;;;;16.68;100.00;100877.72;2089106;28;45079;-61
2023/12/26 00:30:33;;;;;;;;;2.67;2.00;;;;;16.69;100.00;100887.50;2089227;28;45360;-62
2023/12/26 00:31:33;;;;;;;;;4.00;2.00;;;;;16.69;100.00;100876.78;2089065;28;44861;-60
2023/12/26 00:32:34;;;;;;;;;2.33;1.67;;;;;16.69;100.00;100871.44;2089100;28;44977;-61
2023/12/26 00:33:34;;;;;;;;;0.25;0.25;;;;;16.67;100.00;100878.63;2088799;28;44943;-59
2023/12/26 00:34:35;;;;;;;;;2.33;2.33;;;;;16.67;100.00;100887.59;2088904;28;45095;-61
2023/12/26 00:35:35;;;;;;;;;2.33;2.33;;;;;16.68;100.00;100875.06;2097051;28;44831;-61
2023/12/26 00:36:35;;;;;;;;;4.00;2.67;;;;;16.68;100.00;100888.44;2089865;28;44934;-61
2023/12/26 00:37:36;;;;;;;;;3.00;2.00;;;;;16.67;100.00;100876.88;2088936;28;44896;-60
2023/12/26 00:38:36;;;;;;;;;3.67;2.00;;;;;16.67;100.00;100879.53;2089336;28;44834;-61
2023/12/26 00:39:36;;;;;;;;;2.00;2.00;;;;;16.67;100.00;100887.59;2088836;28;44915;-60
2023/12/26 00:40:41;;;;;;;;;3.00;2.00;;;;;16.66;100.00;100874.22;2079577;28;44984;-61
2023/12/26 00:41:41;;;;;;;;;2.75;2.00;;;;;16.67;100.00;100873.28;2080287;28;44867;-61
2023/12/26 00:42:43;;;;;;;;;3.33;2.33;;;;;16.70;100.00;100878.53;2089056;28;44894;-62
2023/12/26 00:43:44;;;;;;;;;3.00;3.00;;;;;16.66;100.00;100876.91;2088376;28;44795;-60
2023/12/26 00:44:44;;;;;;;;;4.00;2.33;;;;;16.65;100.00;100867.13;2088790;28;44918;-62
2023/12/26 00:45:44;;;;;;;;;1.33;1.33;;;;;16.67;100.00;100887.59;2089255;28;45081;-61
2023/12/26 00:46:46;;;;;;;;;2.00;1.67;;;;;16.69;100.00;100877.66;2081178;28;45301;-59
2023/12/26 00:47:46;;;;;;;;;2.50;2.25;;;;;16.69;100.00;100866.06;2086283;28;44909;-62
2023/12/26 00:48:47;;;;;;;;;3.00;2.00;;;;;16.70;100.00;100862.44;2089223;28;45410;-60
2023/12/26 00:49:47;;;;;;;;;4.00;2.33;;;;;16.68;100.00;100867.00;2088757;28;44771;-61
2023/12/26 00:50:47;;;;;;;;;4.67;2.00;;;;;16.66;100.00;100867.06;2089243;28;44938;-60
2023/12/26 00:51:48;;;;;;;;;1.67;1.00;;;;;16.65;100.00;100870.69;2089140;28;44970;-61
2023/12/26 00:52:49;;;;;;;;;2.50;2.50;;;;;16.65;100.00;100862.63;2088865;28;44911;-61
2023/12/26 00:53:49;;;;;;;;;3.33;1.67;;;;;16.65;100.00;100865.31;2089148;28;44817;-61
2023/12/26 00:54:49;;;;;;;;;3.00;0.00;;;;;16.63;100.00;100859.13;2088940;28;44846;-60
2023/12/26 00:55:50;;;;;;;;;2.00;2.00;;;;;16.63;100.00;100859.13;2089000;28;44831;-61
2023/12/26 00:56:50;;;;;;;;;5.00;2.67;;;;;16.63;100.00;100866.28;2088941;28;45193;-61
2023/12/26 00:57:51;;;;;;;;;1.67;1.67;;;;;16.61;100.00;100857.47;2089488;28;45184;-60
2023/12/26 00:58:52;;;;;;;;;3.00;2.33;;;;;16.57;100.00;100858.53;2088967;28;45835;-60
2023/12/26 00:59:52;;;;;;;;;5.00;3.00;;;;;16.46;100.00;100865.25;2089026;28;44830;-59
2023/12/26 01:00:52;;;;;;;;;2.33;2.33;;;;;16.63;100.00;100867.16;2089169;28;44922;-60
2023/12/26 01:01:53;;;;;;;;;2.00;2.00;;;;;16.70;100.00;100859.78;2089016;28;44813;-60
2023/12/26 01:02:53;;;;;;;;;1.67;1.33;;;;;16.71;100.00;100864.19;2088912;28;44795;-60
2023/12/26 01:03:53;;;;;;;;;3.00;1.67;;;;;16.77;100.00;100853.22;2088930;28;44880;-59
2023/12/26 01:04:54;;;;;;;;;2.00;2.00;;;;;16.80;100.00;100854.88;2089064;28;44925;-61
2023/12/26 01:05:54;;;;;;;;;2.00;1.00;;;;;16.75;100.00;100860.41;2088988;28;45215;-61
2023/12/26 01:06:54;;;;;;;;;1.67;1.67;;;;;16.80;100.00;100865.59;2088755;28;44931;-61
2023/12/26 01:07:55;;;;;;;;;5.00;3.00;;;;;16.59;100.00;100860.22;2079305;28;44872;-60
2023/12/26 01:08:55;;;;;;;;;4.00;2.00;;;;;16.61;100.00;100873.53;2079184;28;45044;-60
2023/12/26 01:09:55;;;;;;;;;3.67;2.33;;;;;16.68;100.00;100872.38;2081674;28;45128;-60
2023/12/26 01:10:56;;;;;;;;;2.00;1.00;;;;;16.63;100.00;100864.50;2089267;28;45025;-60
2023/12/26 01:11:56;;;;;;;;;3.00;1.00;;;;;16.65;100.00;100876.03;2089040;28;44949;-59
2023/12/26 01:12:56;;;;;;;;;1.33;1.33;;;;;16.53;100.00;100865.84;2089226;28;45074;-62
2023/12/26 01:13:56;;;;;;;;;2.00;2.00;;;;;16.57;100.00;100863.91;2088983;28;44837;-61
2023/12/26 01:14:57;;;;;;;;;3.33;3.33;;;;;16.61;100.00;100865.50;2088688;28;45063;-61
2023/12/26 01:15:57;;;;;;;;;1.67;1.00;;;;;16.63;100.00;100864.50;2089012;28;45036;-61
2023/12/26 01:16:58;;;;;;;;;3.33;1.33;;;;;16.66;100.00;100869.72;2088620;28;44836;-60
2023/12/26 01:17:58;;;;;;;;;2.00;2.00;;;;;16.67;100.00;100867.91;2088926;28;44839;-61
2023/12/26 01:18:58;;;;;;;;;1.67;1.67;;;;;16.58;100.00;100865.63;2088697;28;45075;-60
2023/12/26 01:19:59;;;;;;;;;2.00;2.00;;;;;16.55;100.00;100869.34;2070895;28;45010;-59
2023/12/26 01:20:59;;;;;;;;;0.00;0.00;;;;;16.51;100.00;100870.38;2071474;28;44996;-61
2023/12/26 01:21:59;;;;;;;;;4.00;2.00;;;;;16.37;100.00;100868.31;2088835;28;44842;-60
2023/12/26 01:23:00;;;;;;;;;2.67;1.33;;;;;16.53;100.00;100876.56;2087598;28;44951;-60
2023/12/26 01:24:00;;;;;;;;;3.67;3.00;;;;;16.53;100.00;100871.22;2087860;28;44797;-60
2023/12/26 01:25:00;;;;;;;;;1.00;1.00;;;;;16.47;100.00;100877.69;2087760;28;44958;-60
2023/12/26 01:26:01;;;;;;;;;1.00;1.00;;;;;16.37;100.00;100875.47;2088143;28;45097;-61
2023/12/26 01:27:01;;;;;;;;;1.00;1.00;;;;;16.45;100.00;100878.69;2087887;28;45199;-61
2023/12/26 01:28:01;;;;;;;;;3.33;2.33;;;;;16.45;100.00;100881.38;2087563;28;44867;-61
2023/12/26 01:29:04;;;;;;;;;3.00;3.00;;;;;16.51;100.00;100881.09;2088250;28;45310;-61
2023/12/26 01:30:05;;;;;;;;;2.00;2.00;;;;;16.46;100.00;100878.63;2087378;28;45037;-62
2023/12/26 01:31:05;;;;;;;;;2.00;2.00;;;;;16.49;100.00;100881.16;2087920;28;44981;-60
2023/12/26 01:32:06;;;;;;;;;1.33;1.33;;;;;16.42;100.00;100879.72;2087714;28;44931;-62
2023/12/26 01:33:07;;;;;;;;;2.00;2.00;;;;;16.53;100.00;100876.56;2087502;28;44926;-60
2023/12/26 01:34:07;;;;;;;;;3.25;2.25;;;;;16.52;100.00;100874.84;2087741;28;44938;-62
2023/12/26 01:35:08;;;;;;;;;2.33;2.33;;;;;16.53;100.00;100881.94;2088135;28;44887;-61
2023/12/26 01:36:08;;;;;;;;;2.33;1.00;;;;;16.55;100.00;100885.41;2088059;28;44881;-61
2023/12/26 01:37:08;;;;;;;;;3.33;2.33;;;;;16.56;100.00;100884.47;2087896;28;44903;-60
2023/12/26 01:38:09;;;;;;;;;2.00;1.00;;;;;16.53;100.00;100886.41;2088937;28;45081;-60
2023/12/26 01:39:10;;;;;;;;;6.00;2.00;;;;;16.58;100.00;100879.91;2087859;28;44991;-60
2023/12/26 01:40:11;;;;;;;;;2.00;2.00;;;;;16.59;100.00;100887.00;2087508;28;45049;-60
2023/12/26 01:41:11;;;;;;;;;2.00;2.00;;;;;16.63;100.00;100877.88;2087633;28;44922;-61
2023/12/26 01:42:11;;;;;;;;;4.00;3.00;;;;;16.68;100.00;100877.72;2087954;28;45131;-62
2023/12/26 01:43:12;;;;;;;;;4.67;1.67;;;;;16.69;100.00;100874.13;2082738;28;44854;-60
2023/12/26 01:44:13;;;;;;;;;2.33;2.33;;;;;16.71;100.00;100874.91;2082334;28;44971;-61
2023/12/26 01:45:14;;;;;;;;;1.33;1.00;;;;;16.70;100.00;100879.41;2087865;28;44918;-62
2023/12/26 01:46:15;;;;;;;;;2.50;2.00;;;;;16.73;100.00;100873.91;2070812;28;45146;-61
2023/12/26 01:47:16;;;;;;;;;3.75;2.00;;;;;16.81;100.00;100886.97;2071497;28;44950;-61
2023/12/26 01:48:16;;;;;;;;;4.00;2.00;;;;;16.85;100.00;100879.66;2087505;28;44938;-60
2023/12/26 01:49:18;;;;;;;;;2.00;1.00;;;;;16.86;100.00;100863.50;2070789;28;44912;-60
2023/12/26 01:50:20;;;;;;;;;3.00;2.75;;;;;16.88;100.00;100875.00;2071081;28;45203;-62
2023/12/26 01:51:22;;;;;;;;;2.00;2.00;;;;;16.90;100.00;100878.53;2085607;28;45089;-60
2023/12/26 01:52:22;;;;;;;;;3.75;2.25;;;;;16.87;100.00;100875.09;2087441;28;45737;-60
2023/12/26 01:53:23;;;;;;;;;3.00;2.67;;;;;16.87;100.00;100881.31;2079502;28;44824;-60
2023/12/26 01:54:30;;;;;;;;;1.00;1.00;;;;;16.81;100.00;100875.38;2080963;28;44924;-61
2023/12/26 01:55:31;;;;;;;;;3.00;1.25;;;;;16.76;100.00;100889.84;2088684;28;44785;-59
2023/12/26 01:56:31;;;;;;;;;2.50;2.50;;;;;16.68;100.00;100878.59;2088746;28;44824;-59
2023/12/26 01:57:34;;;;;;;;;1.67;1.33;;;;;16.66;100.00;100875.09;2088586;28;44790;-60
2023/12/26 01:58:36;;;;;;;;;2.00;2.00;;;;;16.53;100.00;100892.66;2088453;28;45125;-60
2023/12/26 01:59:38;;;;;;;;;3.50;2.25;;;;;16.67;100.00;100884.91;2088577;28;44869;-61
2023/12/26 02:00:40;;;;;;;;;1.75;1.50;;;;;16.66;100.00;100887.63;2088485;28;44815;-58
2023/12/26 02:01:40;;;;;;;;;3.25;1.25;;;;;16.61;100.00;100884.25;2088720;28;44910;-60
2023/12/26 02:02:42;;;;;;;;;1.33;1.00;;;;;16.54;100.00;100888.16;2088369;28;44831;-61
2023/12/26 02:03:43;;;;;;;;;1.50;1.25;;;;;16.60;100.00;100887.88;2088764;28;44944;-61
2023/12/26 02:04:44;;;;;;;;;3.00;3.00;;;;;16.57;100.00;100888.00;2088633;28;44821;-59
2023/12/26 02:05:45;;;;;;;;;2.67;2.67;;;;;16.68;100.00;100883.97;2088570;28;45035;-59
2023/12/26 02:06:48;;;;;;;;;3.50;0.50;;;;;16.69;100.00;100880.34;2088207;28;45235;-59
2023/12/26 02:07:49;;;;;;;;;2.50;1.00;;;;;16.66;100.00;100887.63;2088823;28;44936;-61
2023/12/26 02:08:49;;;;;;;;;0.33;0.33;;;;;16.64;100.00;100885.00;2088663;28;44858;-60
2023/12/26 02:09:50;;;;;;;;;1.33;1.00;;;;;16.59;100.00;100889.69;2088649;28;44875;-59
2023/12/26 02:10:50;;;;;;;;;2.00;2.00;;;;;16.64;100.00;100881.44;2087987;28;45015;-60
2023/12/26 02:11:54;;;;;;;;;2.67;1.33;;;;;16.52;100.00;100884.69;2087838;28;44837;-60
2023/12/26 02:12:55;;;;;;;;;2.00;2.00;;;;;16.56;100.00;100886.28;2080294;28;44996;-60
2023/12/26 02:13:55;;;;;;;;;2.33;1.33;;;;;16.72;100.00;100885.56;2087397;28;44691;-60
2023/12/26 02:14:57;;;;;;;;;2.67;2.00;;;;;16.59;100.00;100883.44;2070771;28;44950;-61
2023/12/26 02:16:01;;;;;;;;;3.25;2.00;;;;;16.76;100.00;100884.47;2070927;28;45755;-60
2023/12/26 02:17:04;;;;;;;;;1.25;1.25;;;;;16.78;100.00;100876.38;2086633;28;44972;-60
2023/12/26 02:18:05;;;;;;;;;0.25;0.25;;;;;16.80;100.00;100887.03;2088559;28;44850;-61
2023/12/26 02:19:05;;;;;;;;;2.67;0.33;;;;;16.81;100.00;100880.75;2088568;28;44882;-62
2023/12/26 02:20:07;;;;;;;;;3.00;1.00;;;;;16.74;100.00;100888.16;2088184;28;44842;-58
2023/12/26 02:21:08;;;;;;;;;1.50;1.25;;;;;16.65;100.00;100894.78;2088738;28;45029;-57
2023/12/26 02:22:08;;;;;;;;;2.67;1.00;;;;;16.71;100.00;100885.63;2088715;28;45012;-61
2023/12/26 02:23:09;;;;;;;;;2.33;2.33;;;;;16.69;100.00;100888.38;2088525;28;45023;-61
2023/12/26 02:24:09;;;;;;;;;2.00;2.00;;;;;16.64;100.00;100893.06;2088672;28;44931;-59
2023/12/26 02:25:10;;;;;;;;;0.67;0.67;;;;;16.53;100.00;100895.31;2088213;28;44926;-60
2023/12/26 02:26:11;;;;;;;;;1.00;1.00;;;;;16.49;100.00;100888.34;2087708;28;44827;-61
2023/12/26 02:27:18;;;;;;;;;0.25;0.25;;;;;16.49;100.00;100894.56;2087898;28;44938;-62
2023/12/26 02:28:18;;;;;;;;;2.50;2.00;;;;;16.69;100.00;100903.59;2087792;28;45178;-61
2023/12/26 02:29:20;;;;;;;;;2.00;2.00;;;;;16.57;100.00;100901.41;2088333;28;44963;-60
2023/12/26 02:30:23;;;;;;;;;0.75;0.25;;;;;16.55;100.00;100901.47;2088401;28;45036;-60
2023/12/26 02:31:24;;;;;;;;;1.25;1.25;;;;;16.53;100.00;100895.31;2088434;28;45019;-61
2023/12/26 02:32:26;;;;;;;;;0.75;0.25;;;;;16.53;100.00;100894.47;2088461;28;45569;-60
2023/12/26 02:33:28;;;;;;;;;0.00;0.00;;;;;16.53;100.00;100897.13;2088348;28;44814;-60
2023/12/26 02:34:29;;;;;;;;;1.75;1.75;;;;;16.65;100.00;100902.84;2089103;28;44876;-60
2023/12/26 02:35:30;;;;;;;;;1.00;1.00;;;;;16.60;100.00;100899.47;2088444;28;45027;-60
2023/12/26 02:36:31;;;;;;;;;5.00;2.00;;;;;16.62;100.00;100905.63;2088237;28;44973;-60
2023/12/26 02:37:32;;;;;;;;;1.00;1.00;;;;;16.65;100.00;100904.63;2088606;28;44987;-60
2023/12/26 02:38:32;;;;;;;;;2.25;1.50;;;;;16.64;100.00;100909.13;2088608;28;44893;-61
2023/12/26 02:39:32;;;;;;;;;1.67;1.33;;;;;16.62;100.00;100904.75;2088472;28;44795;-61
2023/12/26 02:40:33;;;;;;;;;1.00;1.00;;;;;16.51;100.00;100905.22;2078810;28;45009;-61
2023/12/26 02:41:33;;;;;;;;;1.00;1.00;;;;;16.62;100.00;100894.91;2078975;28;44939;-60
2023/12/26 02:42:34;;;;;;;;;4.00;1.33;;;;;16.65;100.00;100894.78;2088181;28;44849;-60
2023/12/26 02:43:34;;;;;;;;;2.00;2.00;;;;;16.66;100.00;100891.16;2088512;28;44761;-60
2023/12/26 02:44:34;;;;;;;;;2.00;1.33;;;;;16.51;100.00;100890.94;2088092;28;45632;-61
2023/12/26 02:45:35;;;;;;;;;2.00;2.00;;;;;16.62;100.00;100894.03;2088599;28;44906;-60
2023/12/26 02:46:36;;;;;;;;;3.00;0.33;;;;;16.68;100.00;100897.38;2088448;28;44785;-61
2023/12/26 02:47:36;;;;;;;;;0.75;0.75;;;;;16.57;100.00;100898.72;2088482;28;44842;-60
2023/12/26 02:48:36;;;;;;;;;2.00;1.00;;;;;16.75;100.00;100892.59;2088221;28;44907;-59
2023/12/26 02:49:37;;;;;;;;;2.00;2.00;;;;;16.77;100.00;100896.09;2070529;28;44955;-59
2023/12/26 02:50:37;;;;;;;;;2.33;2.00;;;;;16.78;100.00;100897.84;2070621;28;44895;-60
2023/12/26 02:51:37;;;;;;;;;2.00;2.00;;;;;16.76;100.00;100891.66;2088290;28;44952;-60
2023/12/26 02:52:39;;;;;;;;;2.00;2.00;;;;;16.77;100.00;100885.38;2088259;28;44766;-58
2023/12/26 02:53:40;;;;;;;;;2.75;1.50;;;;;16.68;100.00;100891.13;2088104;28;44961;-59
2023/12/26 02:54:40;;;;;;;;;4.00;2.67;;;;;16.58;100.00;100893.31;2088309;28;44897;-59
2023/12/26 02:55:41;;;;;;;;;2.67;0.67;;;;;16.53;100.00;100891.78;2088064;28;44897;-60
2023/12/26 02:56:41;;;;;;;;;2.00;1.00;;;;;16.62;100.00;100889.53;2088533;28;44889;-60
2023/12/26 02:57:41;;;;;;;;;1.00;1.00;;;;;16.59;100.00;100886.13;2088029;28;44821;-61
2023/12/26 02:58:41;;;;;;;;;1.00;1.00;;;;;16.48;100.00;100894.63;2087947;28;44832;-60
2023/12/26 02:59:42;;;;;;;;;1.33;1.33;;;;;16.57;100.00;100890.69;2078910;28;44888;-59
2023/12/26 03:00:42;;;;;;;;;1.00;1.00;;;;;16.51;100.00;100896.31;2078663;28;45057;-60
2023/12/26 03:01:45;;;;;;;;;1.00;1.00;;;;;16.68;100.00;100894.69;2088116;28;44771;-59
2023/12/26 03:02:45;;;;;;;;;0.25;0.25;;;;;16.74;100.00;100893.53;2088373;28;45070;-59
2023/12/26 03:03:45;;;;;;;;;2.33;2.00;;;;;16.77;100.00;100891.59;2088002;28;45031;-59
2023/12/26 03:04:46;;;;;;;;;4.00;1.00;;;;;16.78;100.00;100889.78;2088217;28;45489;-60
2023/12/26 03:05:46;;;;;;;;;4.33;1.67;;;;;16.79;100.00;100890.66;2088016;28;44815;-59
2023/12/26 03:06:46;;;;;;;;;1.67;1.67;;;;;16.80;100.00;100897.75;2087985;28;44801;-60
2023/12/26 03:07:47;;;;;;;;;1.33;1.00;;;;;16.79;100.00;100887.97;2088239;28;44920;-59
2023/12/26 03:08:47;;;;;;;;;0.67;0.67;;;;;16.79;100.00;100887.97;2088199;28;44900;-60
2023/12/26 03:09:47;;;;;;;;;1.67;1.33;;;;;16.79;100.00;100890.66;2088121;28;44865;-61
2023/12/26 03:10:48;;;;;;;;;2.33;0.33;;;;;16.78;100.00;100892.47;2088259;28;44862;-61
2023/12/26 03:11:48;;;;;;;;;0.67;0.67;;;;;16.78;100.00;100897.84;2088154;28;44984;-61
2023/12/26 03:12:48;;;;;;;;;4.00;2.00;;;;;16.78;100.00;100903.19;2088279;28;45052;-61
2023/12/26 03:13:48;;;;;;;;;2.67;2.00;;;;;16.72;100.00;100904.31;2088019;28;45498;-61
2023/12/26 03:14:49;;;;;;;;;1.00;1.00;;;;;16.69;100.00;100896.41;2088286;28;45010;-61
2023/12/26 03:15:49;;;;;;;;;2.00;2.00;;;;;16.52;100.00;100892.72;2096035;28;44935;-61
2023/12/26 03:16:49;;;;;;;;;5.00;2.33;;;;;16.48;100.00;100900.88;2096106;28;44778;-61
2023/12/26 03:17:52;;;;;;;;;1.67;1.67;;;;;16.45;100.00;100906.34;2088064;28;44919;-60
2023/12/26 03:18:52;;;;;;;;;1.25;1.25;;;;;16.43;100.00;100900.19;2088368;28;44818;-61
2023/12/26 03:19:52;;;;;;;;;1.00;1.00;;;;;16.41;100.00;100899.41;2087923;28;45496;-60
2023/12/26 03:20:53;;;;;;;;;4.00;2.00;;;;;16.42;100.00;100901.13;2088272;28;44898;-60
2023/12/26 03:21:53;;;;;;;;;2.33;2.00;;;;;16.42;100.00;100905.63;2088141;28;45123;-60
2023/12/26 03:22:53;;;;;;;;;2.00;2.00;;;;;16.43;100.00;100897.53;2088183;28;44823;-59
2023/12/26 03:23:54;;;;;;;;;2.00;2.00;;;;;16.43;100.00;100905.56;2095955;28;44968;-60
2023/12/26 03:24:54;;;;;;;;;1.00;1.00;;;;;16.43;100.00;100900.19;2096016;28;44886;-59
2023/12/26 03:25:54;;;;;;;;;1.00;1.00;;;;;16.43;100.00;100900.19;2088144;28;44822;-61
2023/12/26 03:26:55;;;;;;;;;2.67;2.00;;;;;16.42;100.00;100901.13;2087999;28;44951;-59
2023/12/26 03:27:55;;;;;;;;;1.00;1.00;;;;;16.43;100.00;100902.88;2088286;28;44835;-61
2023/12/26 03:28:55;;;;;;;;;1.67;1.67;;;;;16.42;100.00;100898.47;2088427;28;44915;-60
2023/12/26 03:29:56;;;;;;;;;1.33;1.33;;;;;16.43;100.00;100900.19;2088141;28;44856;-59
2023/12/26 03:30:56;;;;;;;;;1.67;1.00;;;;;16.42;100.00;100905.63;2087530;28;45071;-60
2023/12/26 03:31:56;;;;;;;;;1.33;1.33;;;;;16.43;100.00;100904.69;2078262;28;44973;-60
2023/12/26 03:32:56;;;;;;;;;1.67;1.00;;;;;16.41;100.00;100899.41;2087611;28;44903;-60
2023/12/26 03:33:57;;;;;;;;;2.00;2.00;;;;;16.40;100.00;100907.50;2088304;28;45028;-61
2023/12/26 03:34:57;;;;;;;;;2.00;1.67;;;;;16.40;100.00;100894.13;2088376;28;44953;-60
2023/12/26 03:35:57;;;;;;;;;3.33;2.33;;;;;16.39;100.00;100908.44;2088167;28;45138;-60
2023/12/26 03:36:58;;;;;;;;;1.33;1.33;;;;;16.37;100.00;100904.94;2087970;28;45013;-60
2023/12/26 03:37:58;;;;;;;;;0.67;0.67;;;;;16.36;100.00;100901.38;2088053;28;44771;-60
2023/12/26 03:38:58;;;;;;;;;3.00;2.00;;;;;16.37;100.00;100904.94;2087657;28;44799;-60
2023/12/26 03:39:59;;;;;;;;;3.00;2.00;;;;;16.37;100.00;100903.13;2082345;28;44846;-60
2023/12/26 03:40:59;;;;;;;;;2.00;2.00;;;;;16.38;100.00;100901.31;2079377;28;45002;-60
2023/12/26 03:41:59;;;;;;;;;2.00;2.00;;;;;16.38;100.00;100898.63;2088755;28;44838;-60
2023/12/26 03:43:00;;;;;;;;;1.67;1.67;;;;;16.35;100.00;100906.81;2089056;28;44879;-61
2023/12/26 03:44:00;;;;;;;;;1.00;1.00;;;;;16.35;100.00;100904.13;2089587;28;44836;-60
2023/12/26 03:45:00;;;;;;;;;2.00;0.67;;;;;16.32;100.00;100889.06;2089391;28;44826;-60
2023/12/26 03:46:00;;;;;;;;;1.00;1.00;;;;;16.31;100.00;100890.00;2089237;28;44827;-60
2023/12/26 03:47:01;;;;;;;;;4.00;2.00;;;;;16.30;100.00;100898.13;2089458;28;44889;-61
2023/12/26 03:48:02;;;;;;;;;2.00;2.00;;;;;16.30;100.00;100892.75;2089489;28;44873;-60
2023/12/26 03:49:02;;;;;;;;;2.50;2.00;;;;;16.28;100.00;100879.44;2089389;28;44935;-59
2023/12/26 03:50:06;;;;;;;;;1.33;1.33;;;;;16.28;100.00;100891.97;2089218;28;44799;-60
2023/12/26 03:51:06;;;;;;;;;2.00;2.00;;;;;16.24;100.00;100893.88;2088053;28;44875;-60
2023/12/26 03:52:07;;;;;;;;;2.33;1.33;;;;;16.53;100.00;100894.47;2083453;28;44845;-60
2023/12/26 03:53:07;;;;;;;;;2.00;0.67;;;;;16.61;100.00;100886.94;2089397;28;45119;-59
2023/12/26 03:54:07;;;;;;;;;2.00;2.00;;;;;16.64;100.00;100882.34;2089641;28;44810;-59
2023/12/26 03:55:08;;;;;;;;;2.67;2.67;;;;;16.69;100.00;100877.66;2088518;28;45040;-59
2023/12/26 03:56:08;;;;;;;;;2.00;1.00;;;;;16.64;100.00;100885.00;2089000;28;44937;-61
2023/12/26 03:57:08;;;;;;;;;2.00;1.00;;;;;16.67;100.00;100882.22;2089498;28;44887;-61
2023/12/26 03:58:09;;;;;;;;;1.00;1.00;;;;;16.65;100.00;100872.47;2089711;28;44914;-59
2023/12/26 03:59:09;;;;;;;;;3.33;3.33;;;;;16.65;100.00;100877.84;2089100;28;44932;-60
2023/12/26 04:00:10;;;;;;;;;1.33;1.33;;;;;16.67;100.00;100887.59;2089123;28;44883;-60
2023/12/26 04:01:12;;;;;;;;;2.67;1.00;;;;;16.67;100.00;100884.00;2089310;28;44919;-62
2023/12/26 04:02:12;;;;;;;;;5.50;3.00;;;;;16.64;100.00;100887.69;2089262;28;44905;-61
2023/12/26 04:03:13;;;;;;;;;1.67;1.67;;;;;16.69;100.00;100892.88;2089292;28;44933;-60
2023/12/26 04:04:13;;;;;;;;;6.33;3.67;;;;;16.71;100.00;100882.94;2085754;28;44882;-61
2023/12/26 04:05:13;;;;;;;;;3.00;3.00;;;;;16.72;100.00;100888.22;2089361;28;44783;-61
2023/12/26 04:06:14;;;;;;;;;1.00;1.00;;;;;16.70;100.00;100894.59;2089487;28;44893;-60
2023/12/26 04:07:14;;;;;;;;;2.00;2.00;;;;;16.69;100.00;100900.91;2089385;28;44830;-60
2023/12/26 04:08:14;;;;;;;;;3.00;1.33;;;;;16.68;100.00;100899.16;2089227;28;44915;-59
2023/12/26 04:09:18;;;;;;;;;6.00;2.00;;;;;16.69;100.00;100899.09;2089565;28;44882;-61
2023/12/26 04:10:18;;;;;;;;;1.75;1.50;;;;;16.69;100.00;100899.09;2089060;28;45091;-61
2023/12/26 04:11:19;;;;;;;;;2.33;1.33;;;;;16.72;100.00;100896.28;2089316;28;44898;-60
2023/12/26 04:12:19;;;;;;;;;1.67;1.00;;;;;16.71;100.00;100891.00;2089196;28;44873;-60
2023/12/26 04:13:19;;;;;;;;;2.00;2.00;;;;;16.76;100.00;100892.50;2089292;28;44848;-59
2023/12/26 04:14:20;;;;;;;;;2.67;2.67;;;;;16.70;100.00;100898.16;2089334;28;44877;-60
2023/12/26 04:15:20;;;;;;;;;1.33;1.33;;;;;16.70;100.00;100906.19;2089241;28;44959;-61
2023/12/26 04:16:20;;;;;;;;;1.00;1.00;;;;;16.69;100.00;100899.09;2088425;28;44807;-61
2023/12/26 04:17:21;;;;;;;;;4.00;2.33;;;;;16.66;100.00;100899.22;2088999;28;44847;-61
2023/12/26 04:18:21;;;;;;;;;4.00;3.00;;;;;16.64;100.00;100903.78;2089336;28;44929;-60
2023/12/26 04:19:22;;;;;;;;;2.00;2.00;;;;;16.64;100.00;100913.59;2089669;28;44954;-61
2023/12/26 04:20:22;;;;;;;;;2.00;1.75;;;;;16.64;100.00;100903.78;2088893;28;44884;-61
2023/12/26 04:21:23;;;;;;;;;1.67;1.00;;;;;16.62;100.00;100905.63;2089365;28;45110;-60
2023/12/26 04:22:24;;;;;;;;;2.00;2.00;;;;;16.61;100.00;100897.66;2089450;28;44894;-61
2023/12/26 04:23:24;;;;;;;;;2.00;2.00;;;;;16.61;100.00;100906.56;2089300;28;44873;-61
2023/12/26 04:24:24;;;;;;;;;4.50;3.00;;;;;16.61;100.00;100905.69;2089155;28;45085;-60
2023/12/26 04:25:24;;;;;;;;;1.67;1.67;;;;;16.60;100.00;100912.00;2089429;28;44945;-61
2023/12/26 04:26:25;;;;;;;;;1.67;1.00;;;;;16.60;100.00;100906.63;2089229;28;45215;-61
2023/12/26 04:27:25;;;;;;;;;3.00;1.00;;;;;16.59;100.00;100903.09;2089493;28;44924;-61
2023/12/26 04:28:26;;;;;;;;;1.67;1.67;;;;;16.59;100.00;100913.78;2089026;28;44897;-61
2023/12/26 04:29:26;;;;;;;;;2.00;2.00;;;;;16.59;100.00;100918.28;2089224;28;44885;-60
2023/12/26 04:30:26;;;;;;;;;2.00;2.00;;;;;16.59;100.00;100924.50;2089041;28;45147;-61
2023/12/26 04:31:27;;;;;;;;;2.00;2.00;;;;;16.54;100.00;100918.50;2089380;28;44907;-60
2023/12/26 04:32:27;;;;;;;;;1.00;1.00;;;;;16.55;100.00;100917.56;2089373;28;44995;-58
2023/12/26 04:33:28;;;;;;;;;3.00;3.00;;;;;16.46;100.00;100925.97;2088803;28;44912;-61
2023/12/26 04:34:28;;;;;;;;;2.00;2.00;;;;;16.47;100.00;100923.22;2089281;28;45135;-60
2023/12/26 04:35:29;;;;;;;;;1.00;1.00;;;;;16.49;100.00;100917.81;2089385;28;45013;-60
2023/12/26 04:36:35;;;;;;;;;3.00;2.00;;;;;16.51;100.00;100923.09;2088900;28;44907;-61
2023/12/26 04:37:35;;;;;;;;;4.00;0.75;;;;;16.49;100.00;100926.72;2089165;28;44995;-61
2023/12/26 04:38:35;;;;;;;;;2.00;2.00;;;;;16.52;100.00;100924.88;2089196;28;44834;-61